Sarasota, FL

2:19 PM EDT on August 26, 2016 (GMT -0400)
Sarasota-bradenton | | Change Station

Elev 30 ft 27.40 °N, 82.56 °W | Updated 26 minutes ago

Scattered Clouds
Scattered Clouds
94 °F
Feels Like 104 °F
N
12
Wind Variable Wind from East

Today
High -- | Low -- °F
--% Chance of Precip.
Yesterday
High -- | Low -- °F
Precip. -- in
Pressure 29.93 in
Visibility 10.0 miles
Clouds Few 3800 ft
Scattered Clouds 6000 ft
Heat Index 104 °F
Dew Point 74 °F
Humidity 52%
Rainfall 0.00 in
Snow Depth Not available.
7:06 AM 7:56 PM
Waning Crescent, 32% visible
METAR KSRQ 261753Z 10010KT 10SM FEW038 SCT060 34/23 A2993 RMK AO2 SLP135 T03440233 10350 20261
Pressure 29.93 in
Visibility 10.0 miles
Clouds Few 3800 ft
Scattered Clouds 6000 ft
Heat Index 104 °F
Dew Point 74 °F
Humidity 52%
Rainfall 0.00 in
Snow Depth Not available.
7:06 AM 7:56 PM
Waning Crescent, 32% visible
METAR KSRQ 261753Z 10010KT 10SM FEW038 SCT060 34/23 A2993 RMK AO2 SLP135 T03440233 10350 20261

10-Day Weather Forecast

Almanac

Astronomy

Aug. 26, 2016 Rise Set
Actual Time
Civil Twilight
Nautical Twilight
Astronomical Twilight
Moon
Length of Visible Light
Length of Day
Tomorrow will be .
, % of the Moon is Illuminated

Today's Extremes

State Highs State Lows

Community

WunderPhotos

Upload Photos

1,935,166 photos uploaded!

WunderBlog® & News

Nearby

Air Quality

  Air Quality AQ Index Pollutant
Not available.

Snow Depth

Station Depth Elevation

Earthquake Activity

City Distance Mag. Time & Date
Minimum magnitude displayed is 2.5.

Coastal Water Temperatures

Place Temperature

Stations

Nearby Weather Stations

Station Location Temp. Windchill Dew Point Humidity Wind Precip. Elev Updated Type
                   

Watches & Warnings

There are currently no watches in effect.